Lake Metigoshe, North Dakota
Current Conditions -  °F | °C
As of 8:55 PM on Wednesday 22 Oct 2014 (Local Time) from KRUG Reporting Station
Broken Clouds Broken Clouds  
Wind Chill: 55°   Ceiling: 5000
Heat Index: 55°   Visibility: 10mi
Dew Point: 45°   Wind: 9mph
Humidity: 67%   Direction: 260°W
Pressure: 29.81"   Gusts: NA
Location:  48.8385°N, 100.496°W
Report Text: KRUG 230155Z AUTO 26008KT 10SM BKN050 13/07 A2981 RMK AO2
Loading
Personal Weather Stations






























Interactive Weather Map
Tropical Storm Tracking
New forecast layout! Learn more

10-Day Weather Forecast

Advertisements
Track Severe Weather on mobile